sensor_id;sensor_type;location;lat;lon;timestamp;temperature;humidity
62007;DHT22;47963;53.008;6.754;2022-09-16T00:00:35;11.50;99.90
62007;DHT22;47963;53.008;6.754;2022-09-16T00:03:00;11.50;99.90
62007;DHT22;47963;53.008;6.754;2022-09-16T00:05:26;11.50;99.90
62007;DHT22;47963;53.008;6.754;2022-09-16T00:07:53;11.50;99.90
62007;DHT22;47963;53.008;6.754;2022-09-16T00:10:19;11.50;99.90
62007;DHT22;47963;53.008;6.754;2022-09-16T00:12:45;11.40;99.90
62007;DHT22;47963;53.008;6.754;2022-09-16T00:15:12;11.40;99.90
62007;DHT22;47963;53.008;6.754;2022-09-16T00:17:38;11.30;99.90
62007;DHT22;47963;53.008;6.754;2022-09-16T00:20:05;11.40;99.90
62007;DHT22;47963;53.008;6.754;2022-09-16T00:22:31;11.40;99.90
62007;DHT22;47963;53.008;6.754;2022-09-16T00:24:57;11.40;99.90
62007;DHT22;47963;53.008;6.754;2022-09-16T00:27:22;11.40;99.90
62007;DHT22;47963;53.008;6.754;2022-09-16T00:29:48;11.30;99.90
62007;DHT22;47963;53.008;6.754;2022-09-16T00:32:14;11.30;99.90
62007;DHT22;47963;53.008;6.754;2022-09-16T00:34:40;11.30;99.90
62007;DHT22;47963;53.008;6.754;2022-09-16T00:37:06;11.30;99.90
62007;DHT22;47963;53.008;6.754;2022-09-16T00:39:33;11.20;99.90
62007;DHT22;47963;53.008;6.754;2022-09-16T00:42:00;11.20;99.90
62007;DHT22;47963;53.008;6.754;2022-09-16T00:47:17;11.20;99.90
62007;DHT22;47963;53.008;6.754;2022-09-16T00:49:44;11.20;99.90
62007;DHT22;47963;53.008;6.754;2022-09-16T00:52:11;11.20;99.90
62007;DHT22;47963;53.008;6.754;2022-09-16T00:54:38;11.20;99.90
62007;DHT22;47963;53.008;6.754;2022-09-16T00:57:07;11.20;99.90
62007;DHT22;47963;53.008;6.754;2022-09-16T00:59:37;11.20;99.90
62007;DHT22;47963;53.008;6.754;2022-09-16T01:02:10;11.30;99.90
62007;DHT22;47963;53.008;6.754;2022-09-16T01:04:58;11.30;99.90
62007;DHT22;47963;53.008;6.754;2022-09-16T01:10:00;11.20;99.90
62007;DHT22;47963;53.008;6.754;2022-09-16T01:12:27;11.20;99.90
62007;DHT22;47963;53.008;6.754;2022-09-16T01:14:53;11.20;99.90
62007;DHT22;47963;53.008;6.754;2022-09-16T01:25:37;11.20;99.90
62007;DHT22;47963;53.008;6.754;2022-09-16T01:31:19;11.20;99.90
62007;DHT22;47963;53.008;6.754;2022-09-16T01:34:10;11.30;99.90
62007;DHT22;47963;53.008;6.754;2022-09-16T01:36:49;11.20;99.90
62007;DHT22;47963;53.008;6.754;2022-09-16T01:39:43;11.30;99.90
62007;DHT22;47963;53.008;6.754;2022-09-16T01:42:31;11.30;99.90
62007;DHT22;47963;53.008;6.754;2022-09-16T01:45:16;11.30;99.90
62007;DHT22;47963;53.008;6.754;2022-09-16T01:48:27;11.30;99.90
62007;DHT22;47963;53.008;6.754;2022-09-16T01:56:29;11.20;99.90
62007;DHT22;47963;53.008;6.754;2022-09-16T02:01:51;11.20;99.90
62007;DHT22;47963;53.008;6.754;2022-09-16T02:04:28;11.20;99.90
62007;DHT22;47963;53.008;6.754;2022-09-16T02:06:55;11.20;99.90
62007;DHT22;47963;53.008;6.754;2022-09-16T02:09:26;11.10;99.90
62007;DHT22;47963;53.008;6.754;2022-09-16T02:11:57;11.10;99.90
62007;DHT22;47963;53.008;6.754;2022-09-16T02:14:28;11.10;99.90
62007;DHT22;47963;53.008;6.754;2022-09-16T02:17:03;11.10;99.90
62007;DHT22;47963;53.008;6.754;2022-09-16T02:22:18;11.10;99.90
62007;DHT22;47963;53.008;6.754;2022-09-16T02:24:46;11.00;99.90
62007;DHT22;47963;53.008;6.754;2022-09-16T02:27:15;11.00;99.90
62007;DHT22;47963;53.008;6.754;2022-09-16T02:29:57;11.00;99.90
62007;DHT22;47963;53.008;6.754;2022-09-16T02:32:26;11.00;99.90
62007;DHT22;47963;53.008;6.754;2022-09-16T02:34:54;11.00;99.90
62007;DHT22;47963;53.008;6.754;2022-09-16T02:37:36;11.00;99.90
62007;DHT22;47963;53.008;6.754;2022-09-16T02:40:09;10.90;99.90
62007;DHT22;47963;53.008;6.754;2022-09-16T02:42:35;10.90;99.90
62007;DHT22;47963;53.008;6.754;2022-09-16T02:45:01;11.00;99.90
62007;DHT22;47963;53.008;6.754;2022-09-16T02:47:57;11.00;99.90
62007;DHT22;47963;53.008;6.754;2022-09-16T02:50:33;11.00;99.90
62007;DHT22;47963;53.008;6.754;2022-09-16T02:55:50;10.90;99.90
62007;DHT22;47963;53.008;6.754;2022-09-16T02:58:17;11.00;99.90
62007;DHT22;47963;53.008;6.754;2022-09-16T03:00:46;10.90;99.90
62007;DHT22;47963;53.008;6.754;2022-09-16T03:03:13;11.00;99.90
62007;DHT22;47963;53.008;6.754;2022-09-16T03:08:33;11.00;99.90
62007;DHT22;47963;53.008;6.754;2022-09-16T03:11:17;10.90;99.90
62007;DHT22;47963;53.008;6.754;2022-09-16T03:17:05;11.00;99.90
62007;DHT22;47963;53.008;6.754;2022-09-16T03:22:21;11.00;99.90
62007;DHT22;47963;53.008;6.754;2022-09-16T03:25:09;11.00;99.90
62007;DHT22;47963;53.008;6.754;2022-09-16T03:27:49;11.00;99.90
62007;DHT22;47963;53.008;6.754;2022-09-16T03:30:15;11.00;99.90
62007;DHT22;47963;53.008;6.754;2022-09-16T03:32:54;11.00;99.90
62007;DHT22;47963;53.008;6.754;2022-09-16T03:35:26;11.00;99.90
62007;DHT22;47963;53.008;6.754;2022-09-16T03:37:57;11.00;99.90
62007;DHT22;47963;53.008;6.754;2022-09-16T03:40:24;10.90;99.90
62007;DHT22;47963;53.008;6.754;2022-09-16T03:42:51;10.90;99.90
62007;DHT22;47963;53.008;6.754;2022-09-16T03:45:19;10.90;99.90
62007;DHT22;47963;53.008;6.754;2022-09-16T03:47:46;10.90;99.90
62007;DHT22;47963;53.008;6.754;2022-09-16T03:50:12;10.90;99.90
62007;DHT22;47963;53.008;6.754;2022-09-16T03:52:38;10.80;99.90
62007;DHT22;47963;53.008;6.754;2022-09-16T03:55:05;10.80;99.90
62007;DHT22;47963;53.008;6.754;2022-09-16T03:57:32;10.80;99.90
62007;DHT22;47963;53.008;6.754;2022-09-16T03:59:58;10.70;99.90
62007;DHT22;47963;53.008;6.754;2022-09-16T04:02:24;10.70;99.90
62007;DHT22;47963;53.008;6.754;2022-09-16T04:04:50;10.70;99.90
62007;DHT22;47963;53.008;6.754;2022-09-16T04:07:16;10.70;99.90
62007;DHT22;47963;53.008;6.754;2022-09-16T04:09:42;10.60;99.90
62007;DHT22;47963;53.008;6.754;2022-09-16T04:12:08;10.60;99.90
62007;DHT22;47963;53.008;6.754;2022-09-16T04:14:34;10.60;99.90
62007;DHT22;47963;53.008;6.754;2022-09-16T04:17:00;10.50;99.90
62007;DHT22;47963;53.008;6.754;2022-09-16T04:19:26;10.50;99.90
62007;DHT22;47963;53.008;6.754;2022-09-16T04:21:52;10.60;99.90
62007;DHT22;47963;53.008;6.754;2022-09-16T04:24:18;10.60;99.90
62007;DHT22;47963;53.008;6.754;2022-09-16T04:26:44;10.70;99.90
62007;DHT22;47963;53.008;6.754;2022-09-16T04:29:10;10.60;99.90
62007;DHT22;47963;53.008;6.754;2022-09-16T04:31:36;10.60;99.90
62007;DHT22;47963;53.008;6.754;2022-09-16T04:34:03;10.60;99.90
62007;DHT22;47963;53.008;6.754;2022-09-16T04:36:29;10.60;99.90
62007;DHT22;47963;53.008;6.754;2022-09-16T04:38:55;10.50;99.90
62007;DHT22;47963;53.008;6.754;2022-09-16T04:41:23;10.40;99.90
62007;DHT22;47963;53.008;6.754;2022-09-16T04:43:56;10.40;99.90
62007;DHT22;47963;53.008;6.754;2022-09-16T04:46:24;10.40;99.90
62007;DHT22;47963;53.008;6.754;2022-09-16T04:48:51;10.40;99.90
62007;DHT22;47963;53.008;6.754;2022-09-16T04:51:18;10.30;99.90
62007;DHT22;47963;53.008;6.754;2022-09-16T04:53:45;10.30;99.90
62007;DHT22;47963;53.008;6.754;2022-09-16T04:56:19;10.30;99.90
62007;DHT22;47963;53.008;6.754;2022-09-16T04:58:49;10.30;99.90
62007;DHT22;47963;53.008;6.754;2022-09-16T05:01:18;10.30;99.90
62007;DHT22;47963;53.008;6.754;2022-09-16T05:03:46;10.20;99.90
62007;DHT22;47963;53.008;6.754;2022-09-16T05:06:19;10.10;99.90
62007;DHT22;47963;53.008;6.754;2022-09-16T05:08:45;10.20;99.90
62007;DHT22;47963;53.008;6.754;2022-09-16T05:11:15;10.10;99.90
62007;DHT22;47963;53.008;6.754;2022-09-16T05:13:41;10.10;99.90
62007;DHT22;47963;53.008;6.754;2022-09-16T05:16:13;10.10;99.90
62007;DHT22;47963;53.008;6.754;2022-09-16T05:18:40;10.10;99.90
62007;DHT22;47963;53.008;6.754;2022-09-16T05:21:08;10.10;99.90
62007;DHT22;47963;53.008;6.754;2022-09-16T05:23:34;10.10;99.90
62007;DHT22;47963;53.008;6.754;2022-09-16T05:26:06;10.20;99.90
62007;DHT22;47963;53.008;6.754;2022-09-16T05:28:33;10.10;99.90
62007;DHT22;47963;53.008;6.754;2022-09-16T05:33:40;10.10;99.90
62007;DHT22;47963;53.008;6.754;2022-09-16T05:36:13;10.20;99.90
62007;DHT22;47963;53.008;6.754;2022-09-16T05:38:39;10.20;99.90
62007;DHT22;47963;53.008;6.754;2022-09-16T05:41:06;10.20;99.90
62007;DHT22;47963;53.008;6.754;2022-09-16T05:43:32;10.10;99.90
62007;DHT22;47963;53.008;6.754;2022-09-16T05:45:58;10.10;99.90
62007;DHT22;47963;53.008;6.754;2022-09-16T05:48:24;10.20;99.90
62007;DHT22;47963;53.008;6.754;2022-09-16T05:51:01;10.10;99.90
62007;DHT22;47963;53.008;6.754;2022-09-16T05:53:28;10.10;99.90
62007;DHT22;47963;53.008;6.754;2022-09-16T05:58:21;10.30;99.90
62007;DHT22;47963;53.008;6.754;2022-09-16T06:00:46;10.30;99.90
62007;DHT22;47963;53.008;6.754;2022-09-16T06:03:12;10.30;99.90
62007;DHT22;47963;53.008;6.754;2022-09-16T06:05:38;10.40;99.90
62007;DHT22;47963;53.008;6.754;2022-09-16T06:08:04;10.40;99.90
62007;DHT22;47963;53.008;6.754;2022-09-16T06:10:29;10.40;99.90
62007;DHT22;47963;53.008;6.754;2022-09-16T06:12:55;10.40;99.90
62007;DHT22;47963;53.008;6.754;2022-09-16T06:15:21;10.50;99.90
62007;DHT22;47963;53.008;6.754;2022-09-16T06:17:46;10.60;99.90
62007;DHT22;47963;53.008;6.754;2022-09-16T06:20:12;10.60;99.90
62007;DHT22;47963;53.008;6.754;2022-09-16T06:22:39;10.60;99.90
62007;DHT22;47963;53.008;6.754;2022-09-16T06:25:06;10.70;99.90
62007;DHT22;47963;53.008;6.754;2022-09-16T06:27:32;10.70;99.90
62007;DHT22;47963;53.008;6.754;2022-09-16T06:29:58;10.70;99.90
62007;DHT22;47963;53.008;6.754;2022-09-16T06:32:23;10.80;99.90
62007;DHT22;47963;53.008;6.754;2022-09-16T06:34:49;10.80;99.90
62007;DHT22;47963;53.008;6.754;2022-09-16T06:37:15;10.80;99.90
62007;DHT22;47963;53.008;6.754;2022-09-16T06:39:41;10.80;99.90
62007;DHT22;47963;53.008;6.754;2022-09-16T06:42:07;10.90;99.90
62007;DHT22;47963;53.008;6.754;2022-09-16T06:44:33;10.90;99.90
62007;DHT22;47963;53.008;6.754;2022-09-16T06:46:59;11.00;99.90
62007;DHT22;47963;53.008;6.754;2022-09-16T06:49:24;11.00;99.90
62007;DHT22;47963;53.008;6.754;2022-09-16T06:51:50;11.00;99.90
62007;DHT22;47963;53.008;6.754;2022-09-16T06:54:16;11.10;99.90
62007;DHT22;47963;53.008;6.754;2022-09-16T06:56:42;11.10;99.90
62007;DHT22;47963;53.008;6.754;2022-09-16T06:59:09;11.20;99.90
62007;DHT22;47963;53.008;6.754;2022-09-16T07:01:36;11.30;99.90
62007;DHT22;47963;53.008;6.754;2022-09-16T07:04:04;11.30;99.90
62007;DHT22;47963;53.008;6.754;2022-09-16T07:06:30;11.40;99.90
62007;DHT22;47963;53.008;6.754;2022-09-16T07:08:57;11.60;99.90
62007;DHT22;47963;53.008;6.754;2022-09-16T07:11:23;11.70;99.90
62007;DHT22;47963;53.008;6.754;2022-09-16T07:13:49;11.80;99.90
62007;DHT22;47963;53.008;6.754;2022-09-16T07:16:18;11.90;99.90
62007;DHT22;47963;53.008;6.754;2022-09-16T07:18:44;11.80;99.90
62007;DHT22;47963;53.008;6.754;2022-09-16T07:21:16;11.90;99.90
62007;DHT22;47963;53.008;6.754;2022-09-16T07:23:44;12.00;99.90
62007;DHT22;47963;53.008;6.754;2022-09-16T07:28:38;12.00;99.90
62007;DHT22;47963;53.008;6.754;2022-09-16T07:31:06;12.00;99.90
62007;DHT22;47963;53.008;6.754;2022-09-16T07:33:36;12.10;99.90
62007;DHT22;47963;53.008;6.754;2022-09-16T07:36:04;12.10;99.90
62007;DHT22;47963;53.008;6.754;2022-09-16T07:38:30;12.10;99.90
62007;DHT22;47963;53.008;6.754;2022-09-16T07:41:06;12.10;99.90
62007;DHT22;47963;53.008;6.754;2022-09-16T07:43:33;12.20;99.90
62007;DHT22;47963;53.008;6.754;2022-09-16T07:45:58;12.30;99.90
62007;DHT22;47963;53.008;6.754;2022-09-16T07:48:25;12.30;99.90
62007;DHT22;47963;53.008;6.754;2022-09-16T07:50:59;12.30;99.90
62007;DHT22;47963;53.008;6.754;2022-09-16T07:53:27;12.30;99.90
62007;DHT22;47963;53.008;6.754;2022-09-16T07:55:54;12.40;99.90
62007;DHT22;47963;53.008;6.754;2022-09-16T07:58:20;12.60;99.90
62007;DHT22;47963;53.008;6.754;2022-09-16T08:00:48;12.60;99.90
62007;DHT22;47963;53.008;6.754;2022-09-16T08:03:14;12.70;99.90
62007;DHT22;47963;53.008;6.754;2022-09-16T08:05:41;12.80;99.90
62007;DHT22;47963;53.008;6.754;2022-09-16T08:08:06;12.90;99.90
62007;DHT22;47963;53.008;6.754;2022-09-16T08:10:32;12.90;99.90
62007;DHT22;47963;53.008;6.754;2022-09-16T08:12:58;13.00;99.90
62007;DHT22;47963;53.008;6.754;2022-09-16T08:15:24;13.10;99.90
62007;DHT22;47963;53.008;6.754;2022-09-16T08:17:49;13.20;99.90
62007;DHT22;47963;53.008;6.754;2022-09-16T08:20:15;13.30;99.90
62007;DHT22;47963;53.008;6.754;2022-09-16T08:22:41;13.40;99.90
62007;DHT22;47963;53.008;6.754;2022-09-16T08:25:07;13.50;99.90
62007;DHT22;47963;53.008;6.754;2022-09-16T08:27:35;13.60;99.90
62007;DHT22;47963;53.008;6.754;2022-09-16T08:30:03;13.70;99.90
62007;DHT22;47963;53.008;6.754;2022-09-16T08:32:29;13.70;99.90
62007;DHT22;47963;53.008;6.754;2022-09-16T08:34:55;13.60;99.90
62007;DHT22;47963;53.008;6.754;2022-09-16T08:37:21;13.60;99.90
62007;DHT22;47963;53.008;6.754;2022-09-16T08:39:47;13.70;99.90
62007;DHT22;47963;53.008;6.754;2022-09-16T08:43:09;13.80;99.90
62007;DHT22;47963;53.008;6.754;2022-09-16T08:45:41;14.00;99.90
62007;DHT22;47963;53.008;6.754;2022-09-16T08:50:52;14.00;99.90
62007;DHT22;47963;53.008;6.754;2022-09-16T08:53:28;14.10;99.90
62007;DHT22;47963;53.008;6.754;2022-09-16T08:55:57;14.20;99.90
62007;DHT22;47963;53.008;6.754;2022-09-16T08:58:27;14.20;99.90
62007;DHT22;47963;53.008;6.754;2022-09-16T09:01:03;14.40;99.90
62007;DHT22;47963;53.008;6.754;2022-09-16T09:03:41;14.50;99.90
62007;DHT22;47963;53.008;6.754;2022-09-16T09:06:22;14.50;99.90
62007;DHT22;47963;53.008;6.754;2022-09-16T09:09:04;14.60;99.90
62007;DHT22;47963;53.008;6.754;2022-09-16T09:14:28;14.70;99.90
62007;DHT22;47963;53.008;6.754;2022-09-16T09:17:03;14.70;99.90
62007;DHT22;47963;53.008;6.754;2022-09-16T09:22:19;14.90;99.90
62007;DHT22;47963;53.008;6.754;2022-09-16T09:30:13;15.10;99.90
62007;DHT22;47963;53.008;6.754;2022-09-16T09:33:09;15.10;99.90
62007;DHT22;47963;53.008;6.754;2022-09-16T09:36:09;15.30;99.90
62007;DHT22;47963;53.008;6.754;2022-09-16T09:41:19;14.90;99.90
62007;DHT22;47963;53.008;6.754;2022-09-16T09:46:47;15.00;99.90
62007;DHT22;47963;53.008;6.754;2022-09-16T09:49:27;15.20;99.90
62007;DHT22;47963;53.008;6.754;2022-09-16T09:51:55;15.30;99.90
62007;DHT22;47963;53.008;6.754;2022-09-16T09:54:26;15.40;99.90
62007;DHT22;47963;53.008;6.754;2022-09-16T09:57:07;15.50;99.90
62007;DHT22;47963;53.008;6.754;2022-09-16T09:59:44;15.60;99.90
62007;DHT22;47963;53.008;6.754;2022-09-16T10:02:18;15.70;99.90
62007;DHT22;47963;53.008;6.754;2022-09-16T10:04:44;15.70;99.90
62007;DHT22;47963;53.008;6.754;2022-09-16T10:07:13;15.80;99.90
62007;DHT22;47963;53.008;6.754;2022-09-16T10:09:49;15.70;99.90
62007;DHT22;47963;53.008;6.754;2022-09-16T10:12:29;15.60;99.90
62007;DHT22;47963;53.008;6.754;2022-09-16T10:14:55;15.30;99.90
62007;DHT22;47963;53.008;6.754;2022-09-16T10:17:21;15.00;99.90
62007;DHT22;47963;53.008;6.754;2022-09-16T10:19:53;15.00;99.90
62007;DHT22;47963;53.008;6.754;2022-09-16T10:25:20;15.60;99.90
62007;DHT22;47963;53.008;6.754;2022-09-16T10:28:02;15.90;99.90
62007;DHT22;47963;53.008;6.754;2022-09-16T10:30:30;15.90;99.90
62007;DHT22;47963;53.008;6.754;2022-09-16T10:33:05;15.80;99.90
62007;DHT22;47963;53.008;6.754;2022-09-16T10:35:37;15.90;99.90
62007;DHT22;47963;53.008;6.754;2022-09-16T10:40:31;15.70;99.90
62007;DHT22;47963;53.008;6.754;2022-09-16T10:43:13;15.40;99.90
62007;DHT22;47963;53.008;6.754;2022-09-16T10:45:47;15.10;99.90
62007;DHT22;47963;53.008;6.754;2022-09-16T10:48:19;15.10;99.90
62007;DHT22;47963;53.008;6.754;2022-09-16T10:53:51;15.40;99.90
62007;DHT22;47963;53.008;6.754;2022-09-16T10:56:23;15.50;99.90
62007;DHT22;47963;53.008;6.754;2022-09-16T10:59:04;15.80;99.90
62007;DHT22;47963;53.008;6.754;2022-09-16T11:04:30;16.10;99.90
62007;DHT22;47963;53.008;6.754;2022-09-16T11:12:58;16.30;99.90
62007;DHT22;47963;53.008;6.754;2022-09-16T11:18:59;16.20;99.90
62007;DHT22;47963;53.008;6.754;2022-09-16T11:40:46;16.70;99.90
62007;DHT22;47963;53.008;6.754;2022-09-16T11:57:08;15.10;99.90
62007;DHT22;47963;53.008;6.754;2022-09-16T11:59:51;15.00;99.90
62007;DHT22;47963;53.008;6.754;2022-09-16T12:05:38;15.90;99.90
62007;DHT22;47963;53.008;6.754;2022-09-16T12:11:12;16.00;99.90
62007;DHT22;47963;53.008;6.754;2022-09-16T12:13:50;16.20;99.90
62007;DHT22;47963;53.008;6.754;2022-09-16T12:17:00;16.50;99.90
62007;DHT22;47963;53.008;6.754;2022-09-16T12:19:33;16.50;99.90
62007;DHT22;47963;53.008;6.754;2022-09-16T12:22:07;16.50;99.90
62007;DHT22;47963;53.008;6.754;2022-09-16T12:25:05;16.40;99.90
62007;DHT22;47963;53.008;6.754;2022-09-16T12:27:52;16.50;99.90
62007;DHT22;47963;53.008;6.754;2022-09-16T12:30:21;16.70;99.90
62007;DHT22;47963;53.008;6.754;2022-09-16T12:33:04;16.90;99.90
62007;DHT22;47963;53.008;6.754;2022-09-16T12:35:58;17.00;99.90
62007;DHT22;47963;53.008;6.754;2022-09-16T12:38:26;16.50;99.90
62007;DHT22;47963;53.008;6.754;2022-09-16T12:54:07;16.10;99.90
62007;DHT22;47963;53.008;6.754;2022-09-16T12:57:14;15.90;99.90
62007;DHT22;47963;53.008;6.754;2022-09-16T13:02:16;16.00;99.90
62007;DHT22;47963;53.008;6.754;2022-09-16T13:04:52;16.10;99.90
62007;DHT22;47963;53.008;6.754;2022-09-16T13:07:25;16.10;99.90
62007;DHT22;47963;53.008;6.754;2022-09-16T13:10:53;16.30;99.90
62007;DHT22;47963;53.008;6.754;2022-09-16T13:12:56;16.30;99.90
62007;DHT22;47963;53.008;6.754;2022-09-16T13:15:29;16.20;99.90
62007;DHT22;47963;53.008;6.754;2022-09-16T13:20:58;16.10;99.90
62007;DHT22;47963;53.008;6.754;2022-09-16T13:23:30;16.00;99.90
62007;DHT22;47963;53.008;6.754;2022-09-16T13:26:01;15.70;99.90
62007;DHT22;47963;53.008;6.754;2022-09-16T13:33:43;15.80;99.90
62007;DHT22;47963;53.008;6.754;2022-09-16T13:38:46;15.80;99.90
62007;DHT22;47963;53.008;6.754;2022-09-16T13:41:28;15.70;99.90
62007;DHT22;47963;53.008;6.754;2022-09-16T13:43:54;15.70;99.90
62007;DHT22;47963;53.008;6.754;2022-09-16T13:46:30;15.70;99.90
62007;DHT22;47963;53.008;6.754;2022-09-16T13:51:29;15.90;99.90
62007;DHT22;47963;53.008;6.754;2022-09-16T13:53:55;15.70;99.90
62007;DHT22;47963;53.008;6.754;2022-09-16T14:13:03;14.50;99.90
62007;DHT22;47963;53.008;6.754;2022-09-16T14:15:38;14.50;99.90
62007;DHT22;47963;53.008;6.754;2022-09-16T14:18:05;14.30;99.90
62007;DHT22;47963;53.008;6.754;2022-09-16T14:20:32;14.20;99.90
62007;DHT22;47963;53.008;6.754;2022-09-16T14:23:00;14.20;99.90
62007;DHT22;47963;53.008;6.754;2022-09-16T14:25:32;14.00;99.90
62007;DHT22;47963;53.008;6.754;2022-09-16T14:28:25;13.90;99.90
62007;DHT22;47963;53.008;6.754;2022-09-16T14:31:00;14.00;99.90
62007;DHT22;47963;53.008;6.754;2022-09-16T14:33:32;14.10;99.90
62007;DHT22;47963;53.008;6.754;2022-09-16T14:35:59;14.20;99.90
62007;DHT22;47963;53.008;6.754;2022-09-16T14:38:36;14.30;99.90
62007;DHT22;47963;53.008;6.754;2022-09-16T14:41:08;14.60;99.90
62007;DHT22;47963;53.008;6.754;2022-09-16T14:43:36;14.90;99.90
62007;DHT22;47963;53.008;6.754;2022-09-16T14:46:05;14.80;99.90
62007;DHT22;47963;53.008;6.754;2022-09-16T14:48:34;14.90;99.90
62007;DHT22;47963;53.008;6.754;2022-09-16T14:51:02;14.90;99.90
62007;DHT22;47963;53.008;6.754;2022-09-16T14:53:33;14.70;99.90
62007;DHT22;47963;53.008;6.754;2022-09-16T14:56:02;14.70;99.90
62007;DHT22;47963;53.008;6.754;2022-09-16T14:58:30;14.70;99.90
62007;DHT22;47963;53.008;6.754;2022-09-16T15:01:15;14.60;99.90
62007;DHT22;47963;53.008;6.754;2022-09-16T15:04:01;14.60;99.90
62007;DHT22;47963;53.008;6.754;2022-09-16T15:06:33;14.80;99.90
62007;DHT22;47963;53.008;6.754;2022-09-16T15:09:05;14.60;99.90
62007;DHT22;47963;53.008;6.754;2022-09-16T15:11:42;14.90;99.90
62007;DHT22;47963;53.008;6.754;2022-09-16T15:14:10;14.70;99.90
62007;DHT22;47963;53.008;6.754;2022-09-16T15:16:42;14.30;99.90
62007;DHT22;47963;53.008;6.754;2022-09-16T15:19:28;14.20;99.90
62007;DHT22;47963;53.008;6.754;2022-09-16T15:21:54;14.00;99.90
62007;DHT22;47963;53.008;6.754;2022-09-16T15:24:23;13.90;99.90
62007;DHT22;47963;53.008;6.754;2022-09-16T15:26:52;13.80;99.90
62007;DHT22;47963;53.008;6.754;2022-09-16T15:31:47;13.40;99.90
62007;DHT22;47963;53.008;6.754;2022-09-16T15:36:44;13.20;99.90
62007;DHT22;47963;53.008;6.754;2022-09-16T15:39:39;13.20;99.90
62007;DHT22;47963;53.008;6.754;2022-09-16T15:42:12;13.10;99.90
62007;DHT22;47963;53.008;6.754;2022-09-16T15:44:47;13.10;99.90
62007;DHT22;47963;53.008;6.754;2022-09-16T15:47:17;13.10;99.90
62007;DHT22;47963;53.008;6.754;2022-09-16T15:49:43;13.10;99.90
62007;DHT22;47963;53.008;6.754;2022-09-16T15:52:10;13.30;99.90
62007;DHT22;47963;53.008;6.754;2022-09-16T15:54:40;13.40;99.90
62007;DHT22;47963;53.008;6.754;2022-09-16T15:57:28;13.60;99.90
62007;DHT22;47963;53.008;6.754;2022-09-16T16:00:12;13.60;99.90
62007;DHT22;47963;53.008;6.754;2022-09-16T16:02:55;13.50;99.90
62007;DHT22;47963;53.008;6.754;2022-09-16T16:05:24;14.40;99.90
62007;DHT22;47963;53.008;6.754;2022-09-16T16:08:00;13.80;99.90
62007;DHT22;47963;53.008;6.754;2022-09-16T16:10:27;13.50;99.90
62007;DHT22;47963;53.008;6.754;2022-09-16T16:12:54;13.50;99.90
62007;DHT22;47963;53.008;6.754;2022-09-16T16:15:24;13.40;99.90
62007;DHT22;47963;53.008;6.754;2022-09-16T16:17:52;13.10;99.90
62007;DHT22;47963;53.008;6.754;2022-09-16T16:20:19;13.00;99.90
62007;DHT22;47963;53.008;6.754;2022-09-16T16:22:45;12.80;99.90
62007;DHT22;47963;53.008;6.754;2022-09-16T16:25:12;12.60;99.90
62007;DHT22;47963;53.008;6.754;2022-09-16T16:27:39;12.50;99.90
62007;DHT22;47963;53.008;6.754;2022-09-16T16:30:05;12.40;99.90
62007;DHT22;47963;53.008;6.754;2022-09-16T16:32:31;12.40;99.90
62007;DHT22;47963;53.008;6.754;2022-09-16T16:34:59;12.40;99.90
62007;DHT22;47963;53.008;6.754;2022-09-16T16:37:25;12.30;99.90
62007;DHT22;47963;53.008;6.754;2022-09-16T16:39:51;12.20;99.90
62007;DHT22;47963;53.008;6.754;2022-09-16T16:42:18;12.30;99.90
62007;DHT22;47963;53.008;6.754;2022-09-16T16:44:44;12.10;99.90
62007;DHT22;47963;53.008;6.754;2022-09-16T16:47:10;12.10;99.90
62007;DHT22;47963;53.008;6.754;2022-09-16T16:49:36;12.10;99.90
62007;DHT22;47963;53.008;6.754;2022-09-16T16:52:03;12.20;99.90
62007;DHT22;47963;53.008;6.754;2022-09-16T16:54:30;12.20;99.90
62007;DHT22;47963;53.008;6.754;2022-09-16T16:56:56;12.20;99.90
62007;DHT22;47963;53.008;6.754;2022-09-16T16:59:23;12.30;99.90
62007;DHT22;47963;53.008;6.754;2022-09-16T17:01:55;12.30;99.90
62007;DHT22;47963;53.008;6.754;2022-09-16T17:04:21;12.30;99.90
62007;DHT22;47963;53.008;6.754;2022-09-16T17:06:48;12.20;99.90
62007;DHT22;47963;53.008;6.754;2022-09-16T17:09:15;12.20;99.90
62007;DHT22;47963;53.008;6.754;2022-09-16T17:11:55;12.20;99.90
62007;DHT22;47963;53.008;6.754;2022-09-16T17:14:23;12.20;99.90
62007;DHT22;47963;53.008;6.754;2022-09-16T17:16:49;12.20;99.90
62007;DHT22;47963;53.008;6.754;2022-09-16T17:19:16;12.10;99.90
62007;DHT22;47963;53.008;6.754;2022-09-16T17:21:44;12.00;99.90
62007;DHT22;47963;53.008;6.754;2022-09-16T17:24:10;12.10;99.90
62007;DHT22;47963;53.008;6.754;2022-09-16T17:26:36;12.00;99.90
62007;DHT22;47963;53.008;6.754;2022-09-16T17:29:03;12.00;99.90
62007;DHT22;47963;53.008;6.754;2022-09-16T17:31:30;11.90;99.90
62007;DHT22;47963;53.008;6.754;2022-09-16T17:34:02;12.00;99.90
62007;DHT22;47963;53.008;6.754;2022-09-16T17:36:31;11.90;99.90
62007;DHT22;47963;53.008;6.754;2022-09-16T17:38:58;11.90;99.90
62007;DHT22;47963;53.008;6.754;2022-09-16T17:41:24;11.90;99.90
62007;DHT22;47963;53.008;6.754;2022-09-16T17:43:57;11.90;99.90
62007;DHT22;47963;53.008;6.754;2022-09-16T17:46:25;11.80;99.90
62007;DHT22;47963;53.008;6.754;2022-09-16T17:49:19;11.80;99.90
62007;DHT22;47963;53.008;6.754;2022-09-16T17:51:46;11.80;99.90
62007;DHT22;47963;53.008;6.754;2022-09-16T17:54:12;11.80;99.90
62007;DHT22;47963;53.008;6.754;2022-09-16T17:56:39;11.90;99.90
62007;DHT22;47963;53.008;6.754;2022-09-16T17:59:07;12.00;99.90
62007;DHT22;47963;53.008;6.754;2022-09-16T18:01:33;12.10;99.90
62007;DHT22;47963;53.008;6.754;2022-09-16T18:03:59;12.10;99.90
62007;DHT22;47963;53.008;6.754;2022-09-16T18:06:27;12.10;99.90
62007;DHT22;47963;53.008;6.754;2022-09-16T18:08:53;12.10;99.90
62007;DHT22;47963;53.008;6.754;2022-09-16T18:11:19;12.00;99.90
62007;DHT22;47963;53.008;6.754;2022-09-16T18:13:46;12.10;99.90
62007;DHT22;47963;53.008;6.754;2022-09-16T18:16:15;12.10;99.90
62007;DHT22;47963;53.008;6.754;2022-09-16T18:18:42;12.10;99.90
62007;DHT22;47963;53.008;6.754;2022-09-16T18:21:11;12.10;99.90
62007;DHT22;47963;53.008;6.754;2022-09-16T18:23:39;12.10;99.90
62007;DHT22;47963;53.008;6.754;2022-09-16T18:26:08;12.00;99.90
62007;DHT22;47963;53.008;6.754;2022-09-16T18:28:35;12.10;99.90
62007;DHT22;47963;53.008;6.754;2022-09-16T18:31:03;12.00;99.90
62007;DHT22;47963;53.008;6.754;2022-09-16T18:33:30;12.00;99.90
62007;DHT22;47963;53.008;6.754;2022-09-16T18:35:58;12.10;99.90
62007;DHT22;47963;53.008;6.754;2022-09-16T18:38:24;12.10;99.90
62007;DHT22;47963;53.008;6.754;2022-09-16T18:40:50;12.00;99.90
62007;DHT22;47963;53.008;6.754;2022-09-16T18:43:17;12.00;99.90
62007;DHT22;47963;53.008;6.754;2022-09-16T18:45:42;12.00;99.90
62007;DHT22;47963;53.008;6.754;2022-09-16T18:48:09;12.00;99.90